createdAt,value
2018-10-12T00:00:59.719Z,3.91
2018-10-12T00:10:59.600Z,3.50
2018-10-12T00:20:59.666Z,4.15
2018-10-12T00:30:59.651Z,3.55
2018-10-12T00:40:59.688Z,3.27
2018-10-12T00:50:59.672Z,3.04
2018-10-12T01:01:00.714Z,3.71
2018-10-12T01:11:00.344Z,3.08
2018-10-12T01:20:59.682Z,3.49
2018-10-12T01:30:59.742Z,3.32
2018-10-12T01:40:59.732Z,2.93
2018-10-12T01:50:59.592Z,2.27
2018-10-12T02:00:59.748Z,2.18
2018-10-12T02:10:59.656Z,2.56
2018-10-12T02:20:59.731Z,1.85
2018-10-12T02:30:59.555Z,2.23
2018-10-12T02:40:59.770Z,2.57
2018-10-12T02:50:59.724Z,2.02
2018-10-12T03:01:01.746Z,1.37
2018-10-12T03:10:59.697Z,1.50
2018-10-12T03:20:59.788Z,1.93
2018-10-12T03:30:59.703Z,1.85
2018-10-12T03:40:59.816Z,1.66
2018-10-12T03:50:59.716Z,1.57
2018-10-12T04:00:59.711Z,1.64
2018-10-12T04:10:59.665Z,1.82
2018-10-12T04:20:59.737Z,2.47
2018-10-12T04:30:59.669Z,2.44
2018-10-12T04:40:59.736Z,2.32
2018-10-12T04:50:59.640Z,2.01
2018-10-12T05:00:59.638Z,2.80
2018-10-12T05:10:59.741Z,2.54
2018-10-12T05:20:59.639Z,3.09
2018-10-12T05:30:59.828Z,2.05
2018-10-12T05:40:59.713Z,1.23
2018-10-12T05:50:59.705Z,2.03
2018-10-12T06:00:59.709Z,2.65
2018-10-12T06:11:03.580Z,2.62
2018-10-12T06:20:59.810Z,2.92
2018-10-12T06:30:59.744Z,2.47
2018-10-12T06:40:59.833Z,3.45
2018-10-12T06:51:00.810Z,3.69
2018-10-12T07:00:59.695Z,3.67
2018-10-12T07:10:59.740Z,3.59
2018-10-12T07:20:59.832Z,3.10
2018-10-12T07:30:59.716Z,2.92
2018-10-12T07:40:59.703Z,3.11
2018-10-12T07:50:59.695Z,2.63
2018-10-12T08:00:59.669Z,3.69
2018-10-12T08:10:59.730Z,3.66
2018-10-12T08:21:01.757Z,3.32
2018-10-12T08:30:59.683Z,2.79
2018-10-12T08:40:59.596Z,2.71
2018-10-12T08:50:59.745Z,2.88
2018-10-12T09:00:59.656Z,3.49
2018-10-12T09:10:59.736Z,3.92
2018-10-12T09:20:59.853Z,3.66
2018-10-12T09:30:59.687Z,4.89
2018-10-12T09:40:59.851Z,4.18
2018-10-12T09:50:59.770Z,4.09
2018-10-12T10:00:59.762Z,3.93
2018-10-12T10:10:59.700Z,3.00
2018-10-12T10:20:59.795Z,3.17
2018-10-12T10:31:00.339Z,3.77
2018-10-12T10:40:59.743Z,3.26
2018-10-12T10:50:59.814Z,3.38
2018-10-12T11:00:59.823Z,3.40
2018-10-12T11:10:59.965Z,3.63
2018-10-12T11:20:59.761Z,3.67
2018-10-12T11:30:59.811Z,3.43
2018-10-12T11:41:00.124Z,3.79
2018-10-12T11:50:59.777Z,3.86
2018-10-12T12:00:59.706Z,4.76
2018-10-12T12:10:59.747Z,3.81
2018-10-12T12:20:59.783Z,2.64
2018-10-12T12:31:00.763Z,4.86
2018-10-12T12:41:00.755Z,4.82
2018-10-12T12:51:00.263Z,4.79
2018-10-12T13:00:59.919Z,4.51
2018-10-12T13:10:59.945Z,3.36
2018-10-12T13:20:59.766Z,3.81
2018-10-12T13:30:59.859Z,4.37
2018-10-12T13:41:00.225Z,3.35
2018-10-12T13:51:00.032Z,3.39
2018-10-12T14:00:59.973Z,3.09
2018-10-12T14:10:59.830Z,3.22
2018-10-12T14:20:59.845Z,3.38
2018-10-12T14:30:59.895Z,3.24
2018-10-12T14:40:59.840Z,4.32
2018-10-12T14:50:59.917Z,3.71
2018-10-12T15:00:59.835Z,3.88
2018-10-12T15:10:59.964Z,2.32
2018-10-12T15:20:59.899Z,2.63
2018-10-12T15:30:59.846Z,3.03
2018-10-12T15:40:59.837Z,2.85
2018-10-12T15:50:59.951Z,3.61
2018-10-12T16:00:59.880Z,2.60
2018-10-12T16:10:59.877Z,2.69
2018-10-12T16:20:59.947Z,2.26
2018-10-12T16:31:00.158Z,2.10
2018-10-12T16:40:59.805Z,2.27
2018-10-12T16:50:59.975Z,1.89
2018-10-12T17:00:59.848Z,1.62
2018-10-12T17:11:01.415Z,0.85
2018-10-12T17:20:59.832Z,0.84
2018-10-12T17:30:59.847Z,1.50
2018-10-12T17:40:59.904Z,1.23
2018-10-12T17:50:59.868Z,1.75
2018-10-12T18:00:59.873Z,1.87
2018-10-12T18:10:59.819Z,1.90
2018-10-12T18:20:59.922Z,1.12
2018-10-12T18:30:59.897Z,2.05
2018-10-12T18:40:59.926Z,2.11
2018-10-12T18:50:59.859Z,2.06
2018-10-12T19:00:59.919Z,1.85
2018-10-12T19:11:00.125Z,2.24
2018-10-12T19:21:00.367Z,2.37
2018-10-12T19:30:59.962Z,2.60
2018-10-12T19:40:59.905Z,1.95
2018-10-12T19:51:00.221Z,2.29
2018-10-12T20:00:59.941Z,2.57
2018-10-12T20:10:59.768Z,2.40
2018-10-12T20:20:59.853Z,2.46
2018-10-12T20:30:59.855Z,2.31
2018-10-12T20:40:59.970Z,2.70
2018-10-12T20:50:59.896Z,2.41
2018-10-12T21:01:00.307Z,2.93
2018-10-12T21:10:59.839Z,2.63
2018-10-12T21:21:00.308Z,2.66
2018-10-12T21:30:59.841Z,2.75
2018-10-12T21:41:01.027Z,2.76
2018-10-12T21:50:59.938Z,3.26
2018-10-12T22:00:59.870Z,2.72
2018-10-12T22:10:59.892Z,2.88
2018-10-12T22:20:59.891Z,2.77
2018-10-12T22:30:59.844Z,2.66
2018-10-12T22:40:59.852Z,2.15
2018-10-12T22:51:00.012Z,2.24
2018-10-12T23:00:59.882Z,2.48
2018-10-12T23:10:59.768Z,2.26
2018-10-12T23:20:59.920Z,2.31
2018-10-12T23:30:59.864Z,1.87
2018-10-12T23:40:59.886Z,1.63
2018-10-12T23:50:59.787Z,1.74
